Ardmore Seamaster — V7UU8 — position and weather

sailwx.info

Track history (hours):
 
Tides and Currents Weather Stations Pressure Air Temp Water Temp Dewpoint Dewpoint Depression Visibility Wind Speed Wind Dir Waves Ship Positions

Ardmore Seamaster

Last reported at 2016-May-01 01:33 UTC. Time now 2016-May-01 02:21 UTC.
Position N 30°11' W 093°19'.

Length 179 m; draft 7.8 m.

Type: Tanker. MMSI: 538004102.

Date/timePositionNaut miles runAvg speedWind from/ knotsBaromVisibWave heightAir tempDewpointWater temp
2016-May-01 01:33N 30°11' W 093°19'0 0.0
2016-Apr-30 13:33N 30°11' W 093°19'0 0.0
2016-Apr-30 12:33N 30°11' W 093°19'0 0.0
2016-Apr-30 11:33N 30°11' W 093°19'0 0.0
2016-Apr-30 10:33N 30°11' W 093°19'0 0.0
2016-Apr-30 09:27N 30°11' W 093°19'0 0.0
2016-Apr-30 07:33N 30°11' W 093°19'0 0.0
2016-Apr-30 06:33N 30°11' W 093°19'0 0.0
2016-Apr-30 05:24N 30°11' W 093°19'0 0.0
2016-Apr-30 04:24N 30°11' W 093°19'0 0.0
2016-Apr-30 03:33N 30°11' W 093°19'0 0.0
2016-Apr-30 02:33N 30°11' W 093°19'0 0.0
2016-Apr-30 01:30N 30°11' W 093°19'0 0.0
2016-Apr-30 00:33N 30°11' W 093°19'0 0.0
2016-Apr-29 22:24N 30°11' W 093°19'0 0.0
2016-Apr-29 21:33N 30°11' W 093°19'0 0.0
2016-Apr-29 20:30N 30°11' W 093°19'0 0.0
2016-Apr-29 18:06N 30°11' W 093°19'0 0.0
2016-Apr-29 08:21N 30°11' W 093°19'0 0.0
2016-Apr-29 07:33N 30°11' W 093°19'0 0.0
2016-Apr-29 03:33N 30°11' W 093°19'0 0.0
2016-Apr-29 02:33N 30°11' W 093°19'0 0.0
2016-Apr-29 01:33N 30°11' W 093°19'0 0.0
2016-Apr-29 00:33N 30°11' W 093°19'0 0.0
2016-Apr-28 23:33N 30°11' W 093°19'0 0.0
2016-Apr-28 22:33N 30°11' W 093°19'0 0.0
2016-Apr-28 21:33N 30°11' W 093°19'0 0.0
2016-Apr-28 20:33N 30°11' W 093°19'0 0.0
2016-Apr-28 19:33N 30°11' W 093°19'0 0.0
2016-Apr-28 18:33N 30°11' W 093°19'0 0.0
2016-Apr-28 17:33N 30°11' W 093°19'0 0.0
2016-Apr-28 16:33N 30°11' W 093°19'4 3.9
2016-Apr-28 15:34N 30°07' W 093°20'7 7.1
2016-Apr-28 14:33N 30°00' W 093°20'9 8.9
2016-Apr-28 13:34N 29°51' W 093°21'1010.1
2016-Apr-28 12:34N 29°41' W 093°20'6 4.7
2016-Apr-28 11:10N 29°36' W 093°16'0 0.0
2016-Apr-28 10:25N 29°36' W 093°16'0 0.0
2016-Apr-28 06:31N 29°36' W 093°16'0 0.0
2016-Apr-28 05:25N 29°36' W 093°16'0 0.0
2016-Apr-28 04:13N 29°36' W 093°16'2 0.3
2016-Apr-27 22:33N 29°34' W 093°15'1111.1
2016-Apr-27 21:34N 29°23' W 093°13'1413.2
2016-Apr-27 20:31N 29°10' W 093°13'1212.7
2016-Apr-27 19:34N 28°58' W 093°13'  
Track history (hours):
 
Tides and Currents Weather Stations Pressure Air Temp Water Temp Dewpoint Dewpoint Depression Visibility Wind Speed Wind Dir Waves Ship Positions

Ardmore Seamaster

Last reported at 2016-May-01 01:33 UTC. Time now 2016-May-01 02:21 UTC.
Position N 30°11' W 093°19'.

Length 179 m; draft 7.8 m.

Type: Tanker. MMSI: 538004102.

Date/timePositionNaut miles runAvg speedWind from/ knotsBaromVisibWave heightAir tempDewpointWater temp
2016-May-01 01:33N 30°11' W 093°19'0 0.0
2016-Apr-30 13:33N 30°11' W 093°19'0 0.0
2016-Apr-30 12:33N 30°11' W 093°19'0 0.0
2016-Apr-30 11:33N 30°11' W 093°19'0 0.0
2016-Apr-30 10:33N 30°11' W 093°19'0 0.0
2016-Apr-30 09:27N 30°11' W 093°19'0 0.0
2016-Apr-30 07:33N 30°11' W 093°19'0 0.0
2016-Apr-30 06:33N 30°11' W 093°19'0 0.0
2016-Apr-30 05:24N 30°11' W 093°19'0 0.0
2016-Apr-30 04:24N 30°11' W 093°19'0 0.0
2016-Apr-30 03:33N 30°11' W 093°19'0 0.0
2016-Apr-30 02:33N 30°11' W 093°19'0 0.0
2016-Apr-30 01:30N 30°11' W 093°19'0 0.0
2016-Apr-30 00:33N 30°11' W 093°19'0 0.0
2016-Apr-29 22:24N 30°11' W 093°19'0 0.0
2016-Apr-29 21:33N 30°11' W 093°19'0 0.0
2016-Apr-29 20:30N 30°11' W 093°19'0 0.0
2016-Apr-29 18:06N 30°11' W 093°19'0 0.0
2016-Apr-29 08:21N 30°11' W 093°19'0 0.0
2016-Apr-29 07:33N 30°11' W 093°19'0 0.0
2016-Apr-29 03:33N 30°11' W 093°19'0 0.0
2016-Apr-29 02:33N 30°11' W 093°19'0 0.0
2016-Apr-29 01:33N 30°11' W 093°19'0 0.0
2016-Apr-29 00:33N 30°11' W 093°19'0 0.0
2016-Apr-28 23:33N 30°11' W 093°19'0 0.0
2016-Apr-28 22:33N 30°11' W 093°19'0 0.0
2016-Apr-28 21:33N 30°11' W 093°19'0 0.0
2016-Apr-28 20:33N 30°11' W 093°19'0 0.0
2016-Apr-28 19:33N 30°11' W 093°19'0 0.0
2016-Apr-28 18:33N 30°11' W 093°19'0 0.0
2016-Apr-28 17:33N 30°11' W 093°19'0 0.0
2016-Apr-28 16:33N 30°11' W 093°19'4 3.9
2016-Apr-28 15:34N 30°07' W 093°20'7 7.1
2016-Apr-28 14:33N 30°00' W 093°20'9 8.9
2016-Apr-28 13:34N 29°51' W 093°21'1010.1
2016-Apr-28 12:34N 29°41' W 093°20'6 4.7
2016-Apr-28 11:10N 29°36' W 093°16'0 0.0
2016-Apr-28 10:25N 29°36' W 093°16'0 0.0
2016-Apr-28 06:31N 29°36' W 093°16'0 0.0
2016-Apr-28 05:25N 29°36' W 093°16'0 0.0
2016-Apr-28 04:13N 29°36' W 093°16'2 0.3
2016-Apr-27 22:33N 29°34' W 093°15'1111.1
2016-Apr-27 21:34N 29°23' W 093°13'1413.2
2016-Apr-27 20:31N 29°10' W 093°13'1212.7
2016-Apr-27 19:34N 28°58' W 093°13'  

Dump ship's entire track history